Time;durP1;ratioP1;P1;durP2;ratioP2;P2;SDS_P1;SDS_P2;PMS_P1;PMS_P2;Temp;Humidity;BMP_temperature;BMP_pressure;BME280_temperature;BME280_humidity;BME280_pressure;Samples;Min_cycle;Max_cycle;Signal;HPM_P1;HPM_P2
2023/10/08 00:02:57;;;;;;;16.05;4.30;;;;;;;;;;5022781;28;20394;-57
2023/10/08 00:05:22;;;;;;;15.97;4.47;;;;;;;;;;5016892;28;20774;-57
2023/10/08 00:07:47;;;;;;;14.33;4.57;;;;;;;;;;5016068;28;20391;-57
2023/10/08 00:10:13;;;;;;;17.97;4.90;;;;;;;;;;5003777;28;20405;-57
2023/10/08 00:12:38;;;;;;;17.17;4.50;;;;;;;;;;5007021;28;20479;-57
2023/10/08 00:15:07;;;;;;;13.70;4.40;;;;;;;;;;5003916;28;20405;-57
2023/10/08 00:17:32;;;;;;;18.13;4.80;;;;;;;;;;5019676;28;20705;-57
2023/10/08 00:20:00;;;;;;;16.77;4.60;;;;;;;;;;5011337;28;20402;-57
2023/10/08 00:22:25;;;;;;;15.47;4.03;;;;;;;;;;5011091;28;20470;-56
2023/10/08 00:24:57;;;;;;;16.40;4.27;;;;;;;;;;5002991;28;20927;-57
2023/10/08 00:27:23;;;;;;;14.55;5.05;;;;;;;;;;5018451;28;20399;-57
2023/10/08 00:29:48;;;;;;;15.67;4.07;;;;;;;;;;5008384;28;21011;-57
2023/10/08 00:32:14;;;;;;;16.77;4.63;;;;;;;;;;4995970;28;20470;-57
2023/10/08 00:34:41;;;;;;;18.38;4.85;;;;;;;;;;5018763;28;20395;-57
2023/10/08 00:37:08;;;;;;;17.13;5.05;;;;;;;;;;5032770;28;20406;-57
2023/10/08 00:39:37;;;;;;;15.32;4.82;;;;;;;;;;5019492;28;20928;-57
2023/10/08 00:42:04;;;;;;;18.42;4.80;;;;;;;;;;5016603;28;20405;-58
2023/10/08 00:44:30;;;;;;;14.93;4.38;;;;;;;;;;5025944;28;20391;-57
2023/10/08 00:46:55;;;;;;;19.47;4.80;;;;;;;;;;5018846;28;20403;-57
2023/10/08 00:51:48;;;;;;;18.98;4.70;;;;;;;;;;5024471;28;20456;-57
2023/10/08 00:54:17;;;;;;;18.50;5.15;;;;;;;;;;5022431;28;20407;-57
2023/10/08 00:59:21;;;;;;;15.88;4.60;;;;;;;;;;5023088;28;20538;-57
2023/10/08 01:01:51;;;;;;;13.55;4.45;;;;;;;;;;5025529;28;20422;-57
2023/10/08 01:04:18;;;;;;;15.23;4.57;;;;;;;;;;5021436;28;20490;-57
2023/10/08 01:06:44;;;;;;;18.67;4.85;;;;;;;;;;5022722;28;20917;-57
2023/10/08 01:09:21;;;;;;;15.38;4.75;;;;;;;;;;5015553;28;20440;-57
2023/10/08 01:11:50;;;;;;;16.92;4.45;;;;;;;;;;5025262;28;20399;-57
2023/10/08 01:14:20;;;;;;;17.40;4.53;;;;;;;;;;5017311;28;20415;-57
2023/10/08 01:16:46;;;;;;;18.13;4.60;;;;;;;;;;5014079;28;20487;-57
2023/10/08 01:19:13;;;;;;;18.00;4.90;;;;;;;;;;5015531;28;20557;-57
2023/10/08 01:21:40;;;;;;;18.93;4.80;;;;;;;;;;5035618;28;20748;-57
2023/10/08 01:24:07;;;;;;;20.27;5.07;;;;;;;;;;5032720;28;20411;-57
2023/10/08 01:26:33;;;;;;;17.45;4.72;;;;;;;;;;5032469;28;20963;-57
2023/10/08 01:29:07;;;;;;;17.60;4.65;;;;;;;;;;5031744;28;20403;-57
2023/10/08 01:31:32;;;;;;;17.35;4.75;;;;;;;;;;5051496;28;20420;-57
2023/10/08 01:33:57;;;;;;;14.03;4.77;;;;;;;;;;5043338;28;20400;-57
2023/10/08 01:36:25;;;;;;;15.63;4.70;;;;;;;;;;5029669;28;20396;-57
2023/10/08 01:38:50;;;;;;;15.85;4.85;;;;;;;;;;5031595;28;20391;-57
2023/10/08 01:41:30;;;;;;;16.43;4.70;;;;;;;;;;5030682;28;20407;-57
2023/10/08 01:43:55;;;;;;;15.17;4.50;;;;;;;;;;5031206;28;20403;-57
2023/10/08 01:46:21;;;;;;;13.70;4.37;;;;;;;;;;5031068;28;20406;-57
2023/10/08 01:48:53;;;;;;;14.43;4.88;;;;;;;;;;5031192;28;20962;-57
2023/10/08 01:51:24;;;;;;;17.17;4.85;;;;;;;;;;5030915;28;20882;-57
2023/10/08 01:53:51;;;;;;;15.30;4.90;;;;;;;;;;5031643;28;20434;-57
2023/10/08 01:56:17;;;;;;;12.17;4.37;;;;;;;;;;5030314;28;20902;-57
2023/10/08 01:58:43;;;;;;;18.00;4.72;;;;;;;;;;5031457;28;20403;-57
2023/10/08 02:01:12;;;;;;;15.70;4.73;;;;;;;;;;5030905;28;20727;-57
2023/10/08 02:03:37;;;;;;;15.10;4.50;;;;;;;;;;5030190;28;20402;-57
2023/10/08 02:06:05;;;;;;;21.17;5.13;;;;;;;;;;5030862;28;20399;-58
2023/10/08 02:08:31;;;;;;;15.15;4.72;;;;;;;;;;5031396;28;20925;-57
2023/10/08 02:10:57;;;;;;;15.27;4.30;;;;;;;;;;5030239;28;20427;-57
2023/10/08 02:13:22;;;;;;;14.57;4.70;;;;;;;;;;5030781;28;20457;-57
2023/10/08 02:15:51;;;;;;;16.60;5.00;;;;;;;;;;5031133;28;20401;-57
2023/10/08 02:18:17;;;;;;;12.73;4.60;;;;;;;;;;5030038;28;20414;-57
2023/10/08 02:20:43;;;;;;;18.87;4.83;;;;;;;;;;5030597;28;20415;-57
2023/10/08 02:23:08;;;;;;;17.73;5.15;;;;;;;;;;5030885;28;20403;-57
2023/10/08 02:25:35;;;;;;;17.30;5.00;;;;;;;;;;5030194;28;20395;-57
2023/10/08 02:28:02;;;;;;;16.45;4.90;;;;;;;;;;5030831;28;21032;-57
2023/10/08 02:30:27;;;;;;;17.13;4.60;;;;;;;;;;5042568;28;20394;-57
2023/10/08 02:32:53;;;;;;;14.87;4.67;;;;;;;;;;5011812;28;20407;-57
2023/10/08 02:35:18;;;;;;;19.23;4.93;;;;;;;;;;5001073;28;20779;-57
2023/10/08 02:37:45;;;;;;;17.97;5.30;;;;;;;;;;4999678;28;20927;-58
2023/10/08 02:40:19;;;;;;;16.45;4.85;;;;;;;;;;5015071;28;20869;-57
2023/10/08 02:42:45;;;;;;;19.75;5.32;;;;;;;;;;5020952;28;20485;-57
2023/10/08 02:45:13;;;;;;;17.70;5.15;;;;;;;;;;5002001;28;20935;-57
2023/10/08 02:47:40;;;;;;;17.23;5.05;;;;;;;;;;5019232;28;20838;-57
2023/10/08 02:50:08;;;;;;;17.47;5.17;;;;;;;;;;4997116;28;20962;-57
2023/10/08 02:52:33;;;;;;;19.48;5.15;;;;;;;;;;5012164;28;20391;-57
2023/10/08 02:55:00;;;;;;;18.63;4.93;;;;;;;;;;5013578;28;20399;-57
2023/10/08 02:57:27;;;;;;;16.48;5.00;;;;;;;;;;5012643;28;20402;-57
2023/10/08 02:59:54;;;;;;;16.83;5.05;;;;;;;;;;5003885;28;20409;-57
2023/10/08 03:02:19;;;;;;;13.93;4.60;;;;;;;;;;5005267;28;20422;-57
2023/10/08 03:04:45;;;;;;;15.93;4.82;;;;;;;;;;5004118;28;20412;-57
2023/10/08 03:07:21;;;;;;;18.25;4.93;;;;;;;;;;5003362;28;20422;-57
2023/10/08 03:09:49;;;;;;;17.63;5.15;;;;;;;;;;5005058;28;20533;-57
2023/10/08 03:12:14;;;;;;;18.40;5.40;;;;;;;;;;5001145;28;20420;-57
2023/10/08 03:15:11;;;;;;;16.77;4.80;;;;;;;;;;4995103;28;20414;-57
2023/10/08 03:17:37;;;;;;;17.08;4.90;;;;;;;;;;4997358;28;20399;-57
2023/10/08 03:20:27;;;;;;;14.43;5.07;;;;;;;;;;5004716;28;20412;-56
2023/10/08 03:22:48;;;;;;;15.18;4.70;;;;;;;;;;5007089;28;20438;-57
2023/10/08 03:25:16;;;;;;;15.57;4.63;;;;;;;;;;5003378;28;20947;-57
2023/10/08 03:27:42;;;;;;;20.47;5.50;;;;;;;;;;5003309;28;20408;-57
2023/10/08 03:30:13;;;;;;;16.23;5.22;;;;;;;;;;5004349;28;20407;-57
2023/10/08 03:32:41;;;;;;;17.15;4.95;;;;;;;;;;5014833;28;20481;-57
2023/10/08 03:35:14;;;;;;;18.08;5.18;;;;;;;;;;5024660;28;21251;-57
2023/10/08 03:37:50;;;;;;;17.92;4.72;;;;;;;;;;5029799;28;20940;-57
2023/10/08 03:42:49;;;;;;;15.35;5.15;;;;;;;;;;5029055;28;20419;-57
2023/10/08 03:45:16;;;;;;;17.38;5.75;;;;;;;;;;5023393;28;20888;-57
2023/10/08 03:47:53;;;;;;;17.38;5.00;;;;;;;;;;5009631;28;20397;-57
2023/10/08 03:50:18;;;;;;;19.00;5.70;;;;;;;;;;5009294;28;20922;-57
2023/10/08 03:52:44;;;;;;;16.57;5.60;;;;;;;;;;5010165;28;20393;-58
2023/10/08 03:58:03;;;;;;;16.75;4.82;;;;;;;;;;5009792;28;20395;-57
2023/10/08 04:00:31;;;;;;;18.17;5.30;;;;;;;;;;5009406;28;20411;-57
2023/10/08 04:03:00;;;;;;;18.27;5.32;;;;;;;;;;5009183;28;20439;-57
2023/10/08 04:05:27;;;;;;;18.27;6.38;;;;;;;;;;5009617;28;20412;-57
2023/10/08 04:13:02;;;;;;;16.85;5.35;;;;;;;;;;5029080;28;20406;-57
2023/10/08 04:15:28;;;;;;;19.13;4.90;;;;;;;;;;5011798;28;20807;-57
2023/10/08 04:17:53;;;;;;;19.30;4.97;;;;;;;;;;4992961;28;20401;-57
2023/10/08 04:23:04;;;;;;;14.57;4.00;;;;;;;;;;5009172;28;20419;-57
2023/10/08 04:25:29;;;;;;;14.63;3.85;;;;;;;;;;4999726;28;20470;-57
2023/10/08 04:27:58;;;;;;;18.30;3.80;;;;;;;;;;5003440;28;20986;-57
2023/10/08 04:30:28;;;;;;;11.25;3.25;;;;;;;;;;5010520;28;20849;-57
2023/10/08 04:32:53;;;;;;;12.48;3.53;;;;;;;;;;5008345;28;20755;-57
2023/10/08 04:35:25;;;;;;;12.87;3.00;;;;;;;;;;5003111;28;20401;-57
2023/10/08 04:37:52;;;;;;;13.75;3.55;;;;;;;;;;5021476;28;20445;-57
2023/10/08 04:40:17;;;;;;;11.48;3.38;;;;;;;;;;5015531;28;20414;-57
2023/10/08 04:42:45;;;;;;;9.65;2.85;;;;;;;;;;5015248;28;20781;-57
2023/10/08 04:45:13;;;;;;;11.57;3.13;;;;;;;;;;4997073;28;20990;-57
2023/10/08 04:47:42;;;;;;;10.43;3.10;;;;;;;;;;5022719;28;20410;-57
2023/10/08 04:50:14;;;;;;;11.15;3.20;;;;;;;;;;5006639;28;20421;-56
2023/10/08 04:52:45;;;;;;;11.80;3.10;;;;;;;;;;5021823;28;21226;-57
2023/10/08 04:55:16;;;;;;;13.18;3.47;;;;;;;;;;5022301;28;20403;-57
2023/10/08 04:57:42;;;;;;;10.38;3.22;;;;;;;;;;5022676;28;20399;-57
2023/10/08 05:00:14;;;;;;;10.32;3.00;;;;;;;;;;5021728;28;20457;-57
2023/10/08 05:02:50;;;;;;;10.27;3.58;;;;;;;;;;5015244;28;20759;-57
2023/10/08 05:12:45;;;;;;;9.63;3.93;;;;;;;;;;5002775;28;20401;-57
2023/10/08 05:17:56;;;;;;;10.27;3.40;;;;;;;;;;5027466;28;20445;-57
2023/10/08 05:23:20;;;;;;;9.80;3.30;;;;;;;;;;5019451;28;20498;-57
2023/10/08 05:25:58;;;;;;;7.15;3.13;;;;;;;;;;5023498;28;20415;-57
2023/10/08 05:28:25;;;;;;;9.55;3.10;;;;;;;;;;5024174;28;20403;-57
2023/10/08 05:33:59;;;;;;;10.02;3.03;;;;;;;;;;5018258;28;20468;-57
2023/10/08 05:36:28;;;;;;;9.20;2.95;;;;;;;;;;5027197;28;20477;-57
2023/10/08 05:39:00;;;;;;;8.83;2.70;;;;;;;;;;5029310;28;20407;-57
2023/10/08 05:41:30;;;;;;;7.75;2.65;;;;;;;;;;5002434;28;21018;-57
2023/10/08 05:44:13;;;;;;;8.38;2.50;;;;;;;;;;5014076;28;20490;-57
2023/10/08 05:46:49;;;;;;;7.25;2.40;;;;;;;;;;5004285;28;20435;-56
2023/10/08 05:54:35;;;;;;;6.55;2.72;;;;;;;;;;5014163;28;20852;-57
2023/10/08 05:57:14;;;;;;;5.03;2.70;;;;;;;;;;5021204;28;20391;-57
2023/10/08 06:00:17;;;;;;;8.70;2.60;;;;;;;;;;5021083;28;20481;-57
2023/10/08 06:13:04;;;;;;;7.75;2.67;;;;;;;;;;4994406;28;20411;-57
2023/10/08 06:15:44;;;;;;;7.60;2.30;;;;;;;;;;5012051;28;20375;-56
2023/10/08 06:18:10;;;;;;;6.32;2.30;;;;;;;;;;5014903;28;20428;-57
2023/10/08 06:20:36;;;;;;;5.07;2.37;;;;;;;;;;5021058;28;20878;-57
2023/10/08 06:23:06;;;;;;;5.75;2.30;;;;;;;;;;5019752;28;20921;-57
2023/10/08 06:25:32;;;;;;;4.60;2.10;;;;;;;;;;5019747;28;20503;-57
2023/10/08 06:27:57;;;;;;;4.10;2.30;;;;;;;;;;5001124;28;20412;-57
2023/10/08 06:30:24;;;;;;;3.70;2.00;;;;;;;;;;5002506;28;20864;-57
2023/10/08 06:32:50;;;;;;;4.70;2.10;;;;;;;;;;5019310;28;20402;-57
2023/10/08 06:35:17;;;;;;;5.27;2.40;;;;;;;;;;5028448;28;20402;-57
2023/10/08 06:37:44;;;;;;;4.72;2.67;;;;;;;;;;5029590;28;20720;-57
2023/10/08 06:40:36;;;;;;;5.07;2.67;;;;;;;;;;5030269;28;20476;-57
2023/10/08 06:42:57;;;;;;;5.07;2.80;;;;;;;;;;5030618;28;20399;-57
2023/10/08 06:45:22;;;;;;;4.78;2.90;;;;;;;;;;5022369;28;20409;-57
2023/10/08 06:47:48;;;;;;;6.07;2.90;;;;;;;;;;5011014;28;20498;-57
2023/10/08 06:50:15;;;;;;;6.05;3.08;;;;;;;;;;5010311;28;20542;-57
2023/10/08 06:52:43;;;;;;;6.00;3.20;;;;;;;;;;5010184;28;20435;-57
2023/10/08 06:55:11;;;;;;;5.30;3.35;;;;;;;;;;5010385;28;20884;-57
2023/10/08 06:57:38;;;;;;;5.07;3.50;;;;;;;;;;5010886;28;20405;-57
2023/10/08 07:00:10;;;;;;;7.90;3.67;;;;;;;;;;5009678;28;20757;-57
2023/10/08 07:02:36;;;;;;;7.00;3.58;;;;;;;;;;5010669;28;20483;-57
2023/10/08 07:05:09;;;;;;;6.70;3.97;;;;;;;;;;5009188;28;20459;-57
2023/10/08 07:07:39;;;;;;;6.78;4.18;;;;;;;;;;5027816;28;20476;-56
2023/10/08 07:10:05;;;;;;;6.07;4.47;;;;;;;;;;5029658;28;20395;-57
2023/10/08 07:12:34;;;;;;;6.35;4.57;;;;;;;;;;5029478;28;20403;-56
2023/10/08 07:15:01;;;;;;;7.45;4.82;;;;;;;;;;5030217;28;20407;-57
2023/10/08 07:17:27;;;;;;;7.88;5.20;;;;;;;;;;5029968;28;20470;-56
2023/10/08 07:19:53;;;;;;;6.72;4.65;;;;;;;;;;5030069;28;20482;-57
2023/10/08 07:22:22;;;;;;;6.97;4.47;;;;;;;;;;5029666;28;20494;-56
2023/10/08 07:24:53;;;;;;;6.63;4.70;;;;;;;;;;5029677;28;20465;-56
2023/10/08 07:27:24;;;;;;;6.47;4.47;;;;;;;;;;5028851;28;20828;-57
2023/10/08 07:29:49;;;;;;;7.25;4.80;;;;;;;;;;5029935;28;20398;-56
2023/10/08 07:32:18;;;;;;;5.93;4.47;;;;;;;;;;5029202;28;20403;-57
2023/10/08 07:34:44;;;;;;;7.50;4.78;;;;;;;;;;5028999;28;20408;-57
2023/10/08 07:37:11;;;;;;;7.43;5.22;;;;;;;;;;5029428;28;20395;-57
2023/10/08 07:39:43;;;;;;;8.23;5.85;;;;;;;;;;5028329;28;20430;-56
2023/10/08 07:42:10;;;;;;;7.07;4.72;;;;;;;;;;5028511;28;20403;-56
2023/10/08 07:44:36;;;;;;;6.53;4.60;;;;;;;;;;5029901;28;20415;-57
2023/10/08 07:47:05;;;;;;;6.97;5.00;;;;;;;;;;5028806;28;20460;-57
2023/10/08 07:49:30;;;;;;;7.93;5.82;;;;;;;;;;5029832;28;20449;-57
2023/10/08 07:51:57;;;;;;;9.43;5.63;;;;;;;;;;5029417;28;20394;-56
2023/10/08 07:54:23;;;;;;;7.70;5.93;;;;;;;;;;5028402;28;20397;-57
2023/10/08 07:56:49;;;;;;;7.87;5.50;;;;;;;;;;5029805;28;20497;-57
2023/10/08 07:59:16;;;;;;;8.80;6.55;;;;;;;;;;5029290;28;20470;-57
2023/10/08 08:01:42;;;;;;;8.45;6.35;;;;;;;;;;5030217;28;20483;-56
2023/10/08 08:04:10;;;;;;;9.38;6.80;;;;;;;;;;5033406;28;20415;-56
2023/10/08 08:06:37;;;;;;;9.93;7.20;;;;;;;;;;5032999;28;20410;-57
2023/10/08 08:09:04;;;;;;;8.82;6.57;;;;;;;;;;5032215;28;20813;-57
2023/10/08 08:11:30;;;;;;;9.90;6.95;;;;;;;;;;5033397;28;20742;-56
2023/10/08 08:13:55;;;;;;;10.47;7.17;;;;;;;;;;5033451;28;20391;-57
2023/10/08 08:16:20;;;;;;;9.93;6.73;;;;;;;;;;5031886;28;20410;-57
2023/10/08 08:18:46;;;;;;;10.40;6.30;;;;;;;;;;5033160;28;20391;-57
2023/10/08 08:21:15;;;;;;;11.05;6.13;;;;;;;;;;5032642;28;20411;-57
2023/10/08 08:23:47;;;;;;;10.73;6.10;;;;;;;;;;5032546;28;20414;-56
2023/10/08 08:26:26;;;;;;;9.33;5.77;;;;;;;;;;5032595;28;20937;-56
2023/10/08 08:28:51;;;;;;;8.93;5.78;;;;;;;;;;5033544;28;20449;-56
2023/10/08 08:31:19;;;;;;;11.03;5.43;;;;;;;;;;5051084;28;20401;-56
2023/10/08 08:33:56;;;;;;;7.75;4.53;;;;;;;;;;5053082;28;20416;-56
2023/10/08 08:36:23;;;;;;;8.13;4.32;;;;;;;;;;5051569;28;20874;-56
2023/10/08 08:38:48;;;;;;;8.50;4.10;;;;;;;;;;5053051;28;20500;-56
2023/10/08 08:41:17;;;;;;;7.57;4.03;;;;;;;;;;5052352;28;20436;-57
2023/10/08 08:43:44;;;;;;;7.67;3.83;;;;;;;;;;5037641;28;20387;-56
2023/10/08 08:46:12;;;;;;;7.28;3.15;;;;;;;;;;5032480;28;20901;-56
2023/10/08 08:48:38;;;;;;;5.53;2.90;;;;;;;;;;5032813;28;20417;-57
2023/10/08 08:51:06;;;;;;;6.35;3.03;;;;;;;;;;5031707;28;20395;-57
2023/10/08 08:53:32;;;;;;;7.88;3.25;;;;;;;;;;5032751;28;20964;-56
2023/10/08 08:55:57;;;;;;;5.80;2.93;;;;;;;;;;5031488;28;20395;-56
2023/10/08 08:58:25;;;;;;;7.07;2.73;;;;;;;;;;5031600;28;20427;-56
2023/10/08 09:00:50;;;;;;;6.43;2.70;;;;;;;;;;5031184;28;20419;-56
2023/10/08 09:03:15;;;;;;;7.90;2.57;;;;;;;;;;5031045;28;20422;-56
2023/10/08 09:05:42;;;;;;;6.78;2.33;;;;;;;;;;5031765;28;20399;-56
2023/10/08 09:08:07;;;;;;;6.25;2.40;;;;;;;;;;5032002;28;20411;-57
2023/10/08 09:10:51;;;;;;;5.03;2.47;;;;;;;;;;5032944;28;20395;-57
2023/10/08 09:13:18;;;;;;;5.07;2.10;;;;;;;;;;5017426;28;20403;-56
2023/10/08 09:15:43;;;;;;;5.00;2.20;;;;;;;;;;5016319;28;20407;-56
2023/10/08 09:18:09;;;;;;;6.87;2.40;;;;;;;;;;5024858;28;20475;-56
2023/10/08 09:20:42;;;;;;;6.50;2.30;;;;;;;;;;5018934;28;20815;-56
2023/10/08 09:23:11;;;;;;;6.47;2.00;;;;;;;;;;5016986;28;20485;-57
2023/10/08 09:25:37;;;;;;;5.30;2.13;;;;;;;;;;5024220;28;20468;-56
2023/10/08 09:28:02;;;;;;;6.23;2.37;;;;;;;;;;5022687;28;20407;-57
2023/10/08 09:30:29;;;;;;;7.10;2.20;;;;;;;;;;5022184;28;20406;-56
2023/10/08 09:32:55;;;;;;;5.20;2.20;;;;;;;;;;5024388;28;20486;-57
2023/10/08 09:35:20;;;;;;;5.23;2.30;;;;;;;;;;5016591;28;20822;-56
2023/10/08 09:37:45;;;;;;;5.70;2.30;;;;;;;;;;5017786;28;20915;-56
2023/10/08 09:40:11;;;;;;;6.93;2.30;;;;;;;;;;5022546;28;20884;-56
2023/10/08 09:42:37;;;;;;;5.30;2.00;;;;;;;;;;5025238;28;20446;-56
2023/10/08 09:45:05;;;;;;;4.87;2.00;;;;;;;;;;5020886;28;20473;-57
2023/10/08 09:47:31;;;;;;;5.30;2.30;;;;;;;;;;5022047;28;20401;-57
2023/10/08 09:49:57;;;;;;;5.37;2.10;;;;;;;;;;5016350;28;20416;-57
2023/10/08 09:52:23;;;;;;;5.97;2.45;;;;;;;;;;5030006;28;20391;-56
2023/10/08 09:54:49;;;;;;;5.10;2.00;;;;;;;;;;5029402;28;20409;-56
2023/10/08 09:57:19;;;;;;;5.68;2.00;;;;;;;;;;5029860;28;20402;-56
2023/10/08 09:59:44;;;;;;;5.25;2.10;;;;;;;;;;5031606;28;20494;-56
2023/10/08 10:02:10;;;;;;;4.40;2.00;;;;;;;;;;5028904;28;20895;-57
2023/10/08 10:04:35;;;;;;;5.07;1.90;;;;;;;;;;5031554;28;20441;-56
2023/10/08 10:07:14;;;;;;;4.53;2.00;;;;;;;;;;5030986;28;20747;-55
2023/10/08 10:09:42;;;;;;;4.10;1.87;;;;;;;;;;5029116;28;20387;-56
2023/10/08 10:12:09;;;;;;;4.10;1.70;;;;;;;;;;5030772;28;20398;-57
2023/10/08 10:14:45;;;;;;;5.77;1.80;;;;;;;;;;5029752;28;20478;-57
2023/10/08 10:17:18;;;;;;;5.63;1.83;;;;;;;;;;5030785;28;20403;-57
2023/10/08 10:19:45;;;;;;;4.90;1.98;;;;;;;;;;5029765;28;20434;-56
2023/10/08 10:22:15;;;;;;;5.25;1.50;;;;;;;;;;5030033;28;20403;-56
2023/10/08 10:24:41;;;;;;;5.55;1.70;;;;;;;;;;5021423;28;20418;-56
2023/10/08 10:27:16;;;;;;;4.40;1.70;;;;;;;;;;5023858;28;20409;-56
2023/10/08 10:29:43;;;;;;;4.22;1.40;;;;;;;;;;5009330;28;20392;-57
2023/10/08 10:32:10;;;;;;;6.07;1.40;;;;;;;;;;5001108;28;20419;-56
2023/10/08 10:34:37;;;;;;;5.43;1.55;;;;;;;;;;5017745;28;20896;-56
2023/10/08 10:37:08;;;;;;;4.93;1.27;;;;;;;;;;5023285;28;20406;-57
2023/10/08 10:39:38;;;;;;;6.87;2.30;;;;;;;;;;5024111;28;20434;-56
2023/10/08 10:42:06;;;;;;;7.22;1.40;;;;;;;;;;5019619;28;20786;-57
2023/10/08 10:44:31;;;;;;;3.53;1.10;;;;;;;;;;5019833;28;20420;-57
2023/10/08 10:49:52;;;;;;;5.05;1.40;;;;;;;;;;5004974;28;20408;-57
2023/10/08 10:52:31;;;;;;;3.93;1.10;;;;;;;;;;4997179;28;20428;-57
2023/10/08 10:55:17;;;;;;;5.38;1.42;;;;;;;;;;5016246;28;20403;-57
2023/10/08 10:57:55;;;;;;;6.25;1.33;;;;;;;;;;5002902;28;20406;-57
2023/10/08 11:03:02;;;;;;;6.10;1.30;;;;;;;;;;5023590;28;20759;-59
2023/10/08 11:05:29;;;;;;;4.97;1.20;;;;;;;;;;5004359;28;20447;-57
2023/10/08 11:08:08;;;;;;;6.25;2.25;;;;;;;;;;5020058;28;20413;-57
2023/10/08 11:10:38;;;;;;;5.45;1.60;;;;;;;;;;5004616;28;20466;-57
2023/10/08 11:13:04;;;;;;;5.53;1.30;;;;;;;;;;5035887;28;20399;-57
2023/10/08 11:15:37;;;;;;;4.13;1.40;;;;;;;;;;5030572;28;20801;-57
2023/10/08 11:18:08;;;;;;;3.88;1.05;;;;;;;;;;5014653;28;20387;-57
2023/10/08 11:20:37;;;;;;;5.70;1.40;;;;;;;;;;5018668;28;20577;-57
2023/10/08 11:23:17;;;;;;;4.47;1.20;;;;;;;;;;5023428;28;20432;-57
2023/10/08 11:25:52;;;;;;;4.80;1.40;;;;;;;;;;5023022;28;20419;-57
2023/10/08 11:28:18;;;;;;;4.43;1.30;;;;;;;;;;5023273;28;20477;-57
2023/10/08 11:30:46;;;;;;;4.28;1.30;;;;;;;;;;5010262;28;20480;-57
2023/10/08 11:33:15;;;;;;;5.53;1.20;;;;;;;;;;5018023;28;20474;-57
2023/10/08 11:35:54;;;;;;;4.65;1.10;;;;;;;;;;5009945;28;20954;-57
2023/10/08 11:38:22;;;;;;;5.03;1.10;;;;;;;;;;5007131;28;20532;-57
2023/10/08 11:40:49;;;;;;;5.00;1.23;;;;;;;;;;5000641;28;20414;-57
2023/10/08 11:43:15;;;;;;;5.53;1.30;;;;;;;;;;5004069;28;20405;-57
2023/10/08 11:45:48;;;;;;;6.63;1.90;;;;;;;;;;5012998;28;20416;-57
2023/10/08 11:48:13;;;;;;;3.80;1.17;;;;;;;;;;5007339;28;20457;-57
2023/10/08 11:50:39;;;;;;;3.60;1.50;;;;;;;;;;5008871;28;20405;-57
2023/10/08 11:53:05;;;;;;;2.47;1.08;;;;;;;;;;5008432;28;20417;-57
2023/10/08 11:55:35;;;;;;;3.35;1.17;;;;;;;;;;5007968;28;20905;-57
2023/10/08 11:58:00;;;;;;;3.22;1.30;;;;;;;;;;5008073;28;20415;-57
2023/10/08 12:00:26;;;;;;;5.40;1.67;;;;;;;;;;5001115;28;21285;-57
2023/10/08 12:02:54;;;;;;;2.90;1.37;;;;;;;;;;5001769;28;20824;-57
2023/10/08 12:05:19;;;;;;;3.83;1.60;;;;;;;;;;5000698;28;20395;-57
2023/10/08 12:07:46;;;;;;;2.15;1.40;;;;;;;;;;5008253;28;20401;-57
2023/10/08 12:10:11;;;;;;;3.35;1.50;;;;;;;;;;5012062;28;20413;-57
2023/10/08 12:12:37;;;;;;;2.83;1.43;;;;;;;;;;5009110;28;20998;-57
2023/10/08 12:15:03;;;;;;;3.33;1.40;;;;;;;;;;5007760;28;20409;-57
2023/10/08 12:17:39;;;;;;;3.38;1.48;;;;;;;;;;5010807;28;20478;-57
2023/10/08 12:20:12;;;;;;;3.08;1.35;;;;;;;;;;5009076;28;20987;-57
2023/10/08 12:22:37;;;;;;;3.83;1.30;;;;;;;;;;5000111;28;20408;-57
2023/10/08 12:25:07;;;;;;;3.70;1.30;;;;;;;;;;4999544;28;20755;-57
2023/10/08 12:27:32;;;;;;;4.50;1.40;;;;;;;;;;5002617;28;20414;-58
2023/10/08 12:29:58;;;;;;;2.73;1.43;;;;;;;;;;5006502;28;20962;-57
2023/10/08 12:32:26;;;;;;;3.70;1.38;;;;;;;;;;5008065;28;20389;-57
2023/10/08 12:34:53;;;;;;;5.85;1.38;;;;;;;;;;5010053;28;20405;-57
2023/10/08 12:37:18;;;;;;;4.57;1.50;;;;;;;;;;5008209;28;20459;-57
2023/10/08 12:39:59;;;;;;;3.50;1.40;;;;;;;;;;5009377;28;20489;-56
2023/10/08 12:42:25;;;;;;;4.10;1.60;;;;;;;;;;5007908;28;20860;-57
2023/10/08 12:44:50;;;;;;;2.30;1.33;;;;;;;;;;5004249;28;20539;-58
2023/10/08 12:47:16;;;;;;;4.22;1.60;;;;;;;;;;5000920;28;21326;-57
2023/10/08 12:49:41;;;;;;;2.67;1.30;;;;;;;;;;5003274;28;20768;-58
2023/10/08 12:52:08;;;;;;;4.82;1.58;;;;;;;;;;5009893;28;20459;-57
2023/10/08 12:54:45;;;;;;;4.68;1.40;;;;;;;;;;5017024;28;20415;-57
2023/10/08 12:57:10;;;;;;;3.10;1.40;;;;;;;;;;5011590;28;20432;-57
2023/10/08 12:59:35;;;;;;;3.33;1.30;;;;;;;;;;5012700;28;20413;-57
2023/10/08 13:02:07;;;;;;;4.13;1.27;;;;;;;;;;5017903;28;20406;-58
2023/10/08 13:04:34;;;;;;;2.15;1.20;;;;;;;;;;5008727;28;21020;-57
2023/10/08 13:07:02;;;;;;;3.08;1.10;;;;;;;;;;5007605;28;20423;-57
2023/10/08 13:09:30;;;;;;;4.60;1.30;;;;;;;;;;5000856;28;20400;-57
2023/10/08 13:11:59;;;;;;;3.13;1.10;;;;;;;;;;5000830;28;20401;-57
2023/10/08 13:14:24;;;;;;;3.00;1.38;;;;;;;;;;5006506;28;21005;-57
2023/10/08 13:16:53;;;;;;;2.67;1.40;;;;;;;;;;5011188;28;20405;-57
2023/10/08 13:19:19;;;;;;;4.10;2.03;;;;;;;;;;5009858;28;20499;-57
2023/10/08 13:21:44;;;;;;;2.43;1.50;;;;;;;;;;5012020;28;20741;-57
2023/10/08 13:24:10;;;;;;;1.92;1.35;;;;;;;;;;5010345;28;20498;-57
2023/10/08 13:26:37;;;;;;;3.50;1.80;;;;;;;;;;5010198;28;20503;-57
2023/10/08 13:29:05;;;;;;;4.38;2.90;;;;;;;;;;5008979;28;21027;-57
2023/10/08 13:31:30;;;;;;;7.50;6.10;;;;;;;;;;5003105;28;20405;-57
2023/10/08 13:33:57;;;;;;;2.47;1.90;;;;;;;;;;5003860;28;20444;-57
2023/10/08 13:36:23;;;;;;;5.22;4.32;;;;;;;;;;5004119;28;20410;-57
2023/10/08 13:38:49;;;;;;;371.88;234.80;;;;;;;;;;5009769;28;20404;-56
2023/10/08 13:41:15;;;;;;;186.80;110.33;;;;;;;;;;5009781;28;20477;-56
2023/10/08 13:43:45;;;;;;;48.87;32.47;;;;;;;;;;5009937;28;20408;-57
2023/10/08 13:46:13;;;;;;;6.30;3.25;;;;;;;;;;5008339;28;20409;-57
2023/10/08 13:48:38;;;;;;;185.55;104.68;;;;;;;;;;5012396;28;20498;-57
2023/10/08 13:51:04;;;;;;;4.27;1.77;;;;;;;;;;5009441;28;20523;-57
2023/10/08 13:53:30;;;;;;;5.40;2.40;;;;;;;;;;5001610;28;20480;-57
2023/10/08 13:55:56;;;;;;;5.85;4.38;;;;;;;;;;5003802;28;20822;-57
2023/10/08 13:58:22;;;;;;;3.20;1.40;;;;;;;;;;5007867;28;20408;-57
2023/10/08 14:00:50;;;;;;;3.50;2.30;;;;;;;;;;5007289;28;20423;-57
2023/10/08 14:03:21;;;;;;;3.75;2.13;;;;;;;;;;5008764;28;20412;-57
2023/10/08 14:05:49;;;;;;;2.05;1.30;;;;;;;;;;5010740;28;20497;-57
2023/10/08 14:08:15;;;;;;;2.60;1.35;;;;;;;;;;5016811;28;20405;-57
2023/10/08 14:10:43;;;;;;;2.77;1.60;;;;;;;;;;5009031;28;20509;-57
2023/10/08 14:13:08;;;;;;;3.72;1.40;;;;;;;;;;5012222;28;20969;-57
2023/10/08 14:15:36;;;;;;;2.45;1.15;;;;;;;;;;5009428;28;20407;-57
2023/10/08 14:18:07;;;;;;;3.57;1.20;;;;;;;;;;5001364;28;20668;-57
2023/10/08 14:20:32;;;;;;;3.63;1.88;;;;;;;;;;5003727;28;20409;-57
2023/10/08 14:23:02;;;;;;;3.87;1.50;;;;;;;;;;5008493;28;20758;-57
2023/10/08 14:25:28;;;;;;;2.80;1.30;;;;;;;;;;5012993;28;20490;-57
2023/10/08 14:27:53;;;;;;;4.45;2.28;;;;;;;;;;5013798;28;20393;-57
2023/10/08 14:30:21;;;;;;;4.20;1.60;;;;;;;;;;5019132;28;20481;-57
2023/10/08 14:32:47;;;;;;;3.15;1.20;;;;;;;;;;5022477;28;20405;-57
2023/10/08 14:43:24;;;;;;;2.70;1.20;;;;;;;;;;5014576;28;20743;-57
2023/10/08 14:45:49;;;;;;;2.17;1.20;;;;;;;;;;5022143;28;20905;-57
2023/10/08 14:48:16;;;;;;;3.30;1.37;;;;;;;;;;5019155;28;20407;-57
2023/10/08 14:50:41;;;;;;;2.90;1.25;;;;;;;;;;5018688;28;20407;-57
2023/10/08 14:53:07;;;;;;;3.73;1.40;;;;;;;;;;5014855;28;20408;-57
2023/10/08 14:55:35;;;;;;;2.90;1.10;;;;;;;;;;5023789;28;20395;-57
2023/10/08 14:58:07;;;;;;;3.28;1.20;;;;;;;;;;5016882;28;20412;-57
2023/10/08 15:00:35;;;;;;;3.25;1.20;;;;;;;;;;5012569;28;20415;-56
2023/10/08 15:03:02;;;;;;;2.45;1.13;;;;;;;;;;5022361;28;20407;-57
2023/10/08 15:05:27;;;;;;;2.60;1.20;;;;;;;;;;5016564;28;20407;-57
2023/10/08 15:07:53;;;;;;;3.53;1.40;;;;;;;;;;5023466;28;20399;-57
2023/10/08 15:10:18;;;;;;;3.33;1.30;;;;;;;;;;5029295;28;20411;-57
2023/10/08 15:12:44;;;;;;;3.17;1.37;;;;;;;;;;5018112;28;20790;-57
2023/10/08 15:15:13;;;;;;;4.18;1.23;;;;;;;;;;5024348;28;20441;-57
2023/10/08 15:17:44;;;;;;;4.15;1.40;;;;;;;;;;5014412;28;20760;-56
2023/10/08 15:20:14;;;;;;;3.17;1.15;;;;;;;;;;5017235;28;20488;-56
2023/10/08 15:22:39;;;;;;;2.58;1.30;;;;;;;;;;5015615;28;20420;-57
2023/10/08 15:25:05;;;;;;;3.70;1.30;;;;;;;;;;5030121;28;20418;-57
2023/10/08 15:27:31;;;;;;;2.90;1.20;;;;;;;;;;5020618;28;20478;-57
2023/10/08 15:29:56;;;;;;;4.32;1.30;;;;;;;;;;5022816;28;20474;-57
2023/10/08 15:32:21;;;;;;;3.33;1.37;;;;;;;;;;5012639;28;20391;-56
2023/10/08 15:34:47;;;;;;;3.73;1.33;;;;;;;;;;5015829;28;20384;-56
2023/10/08 15:37:14;;;;;;;4.22;1.40;;;;;;;;;;5019401;28;20422;-56
2023/10/08 15:39:40;;;;;;;2.97;1.30;;;;;;;;;;5022355;28;20901;-56
2023/10/08 15:42:05;;;;;;;2.93;1.40;;;;;;;;;;5014481;28;20401;-57
2023/10/08 15:44:31;;;;;;;3.00;1.30;;;;;;;;;;5017968;28;20458;-56
2023/10/08 15:46:56;;;;;;;4.10;1.60;;;;;;;;;;5021726;28;20403;-56
2023/10/08 15:49:21;;;;;;;3.90;1.37;;;;;;;;;;5014504;28;20387;-57